Time;durP1;ratioP1;P1;durP2;ratioP2;P2;SDS_P1;SDS_P2;PMS_P1;PMS_P2;Temp;Humidity;BMP_temperature;BMP_pressure;BME280_temperature;BME280_humidity;BME280_pressure;Samples;Min_cycle;Max_cycle;Signal;HPM_P1;HPM_P2
2021/06/22 00:00:38;;;;;;;1.30;0.50;;;21.00;73.60;;;;;;2346629;53;21719;-67
2021/06/22 00:03:05;;;;;;;1.05;0.50;;;21.10;73.70;;;;;;2344899;53;21462;-66
2021/06/22 00:05:32;;;;;;;1.50;0.57;;;21.00;73.70;;;;;;2347344;53;21033;-66
2021/06/22 00:07:58;;;;;;;1.10;0.50;;;21.10;73.80;;;;;;2352245;53;21555;-68
2021/06/22 00:10:26;;;;;;;1.45;0.50;;;21.00;73.60;;;;;;2348680;53;21294;-69
2021/06/22 00:12:53;;;;;;;2.15;0.60;;;21.00;73.60;;;;;;2588197;52;20930;-69
2021/06/22 00:15:20;;;;;;;1.25;0.57;;;21.00;73.70;;;;;;2346719;53;21076;-68
2021/06/22 00:17:46;;;;;;;1.80;0.60;;;21.00;73.80;;;;;;2346277;53;21009;-67
2021/06/22 00:20:13;;;;;;;1.37;0.60;;;21.00;73.80;;;;;;2438217;52;20982;-66
2021/06/22 00:22:40;;;;;;;1.27;0.55;;;21.00;73.80;;;;;;2351389;53;20927;-67
2021/06/22 00:25:07;;;;;;;1.75;0.70;;;21.00;73.90;;;;;;2344835;53;22018;-69
2021/06/22 00:27:33;;;;;;;1.70;0.88;;;21.00;74.00;;;;;;2347038;53;20951;-66
2021/06/22 00:29:59;;;;;;;2.22;0.70;;;21.00;74.00;;;;;;2512908;52;21034;-67
2021/06/22 00:32:25;;;;;;;1.27;0.52;;;21.00;74.00;;;;;;2345231;53;20986;-66
2021/06/22 00:34:52;;;;;;;1.35;0.62;;;21.00;74.10;;;;;;2348855;53;20954;-66
2021/06/22 00:37:18;;;;;;;0.80;0.40;;;21.00;74.10;;;;;;2483789;52;21014;-66
2021/06/22 00:39:45;;;;;;;0.93;0.32;;;21.00;74.20;;;;;;2388837;52;21526;-66
2021/06/22 00:42:11;;;;;;;1.70;0.50;;;21.00;74.20;;;;;;2348669;53;21522;-67
2021/06/22 00:45:11;;;;;;;1.00;0.50;;;21.00;74.20;;;;;;2349253;53;21828;-66
2021/06/22 00:47:39;;;;;;;1.52;0.50;;;21.00;73.40;;;;;;2348842;53;21732;-66
2021/06/22 00:50:08;;;;;;;1.92;0.60;;;21.00;74.00;;;;;;2329198;54;21073;-67
2021/06/22 00:52:35;;;;;;;1.45;0.43;;;21.00;74.00;;;;;;2351227;53;21412;-70
2021/06/22 00:55:02;;;;;;;3.20;0.55;;;21.00;74.00;;;;;;2383094;53;20922;-66
2021/06/22 00:57:28;;;;;;;1.73;0.40;;;21.00;74.00;;;;;;2347352;53;21598;-66
2021/06/22 00:59:54;;;;;;;2.53;0.70;;;21.00;74.00;;;;;;2349466;53;21408;-66
2021/06/22 01:02:21;;;;;;;1.08;0.50;;;21.00;74.00;;;;;;2344786;53;22123;-66
2021/06/22 01:04:48;;;;;;;1.48;0.50;;;21.00;74.00;;;;;;2351544;53;21038;-66
2021/06/22 01:07:15;;;;;;;1.35;0.55;;;21.00;74.00;;;;;;2345310;53;21031;-68
2021/06/22 01:09:41;;;;;;;1.45;0.50;;;21.00;74.00;;;;;;2345352;53;21037;-69
2021/06/22 01:12:08;;;;;;;1.65;0.57;;;21.00;74.00;;;;;;2346578;53;21448;-66
2021/06/22 01:14:40;;;;;;;1.90;0.70;;;21.00;74.00;;;;;;2347436;53;20958;-66
2021/06/22 01:17:06;;;;;;;1.73;0.60;;;21.00;73.80;;;;;;2349036;53;21022;-69
2021/06/22 01:19:34;;;;;;;1.65;0.80;;;21.00;74.00;;;;;;2349204;53;20940;-69
2021/06/22 01:22:00;;;;;;;3.58;1.98;;;21.00;74.00;;;;;;2346583;53;21069;-66
2021/06/22 01:24:28;;;;;;;3.05;1.70;;;21.00;74.00;;;;;;2347308;53;21010;-67
2021/06/22 01:26:56;;;;;;;2.75;1.62;;;21.00;74.00;;;;;;2327077;53;20966;-68
2021/06/22 01:29:25;;;;;;;4.60;1.00;;;21.00;74.00;;;;;;2345827;53;20929;-66
2021/06/22 01:31:51;;;;;;;1.50;0.80;;;21.00;73.80;;;;;;2349010;53;20934;-67
2021/06/22 01:34:35;;;;;;;1.45;0.77;;;21.00;73.90;;;;;;2354886;53;21253;-66
2021/06/22 01:37:05;;;;;;;1.50;0.50;;;21.00;73.20;;;;;;2348252;53;20982;-66
2021/06/22 01:39:32;;;;;;;1.58;0.60;;;21.00;73.90;;;;;;2331514;53;21017;-66
2021/06/22 01:41:58;;;;;;;1.95;0.55;;;21.00;73.80;;;;;;2588597;52;20983;-68
2021/06/22 01:44:28;;;;;;;2.05;0.60;;;21.00;73.80;;;;;;2348159;53;20912;-66
2021/06/22 01:46:54;;;;;;;2.87;0.60;;;21.00;73.80;;;;;;2332869;53;21803;-66
2021/06/22 01:49:20;;;;;;;1.37;0.70;;;20.90;73.90;;;;;;2346452;53;20990;-66
2021/06/22 01:51:48;;;;;;;0.40;0.28;;;20.90;74.00;;;;;;2362790;53;20962;-68
2021/06/22 01:54:14;;;;;;;0.77;0.30;;;20.90;74.00;;;;;;2352159;53;21089;-66
2021/06/22 01:56:46;;;;;;;1.30;0.50;;;20.90;74.10;;;;;;2590074;52;20960;-66
2021/06/22 01:59:12;;;;;;;1.23;0.50;;;20.90;74.20;;;;;;2589033;52;20948;-66
2021/06/22 02:01:40;;;;;;;2.17;0.57;;;20.90;74.20;;;;;;2483362;52;21001;-66
2021/06/22 02:04:06;;;;;;;1.45;0.60;;;20.90;74.10;;;;;;2348993;53;20955;-67
2021/06/22 02:06:33;;;;;;;1.20;0.45;;;20.90;74.20;;;;;;2345672;53;20910;-67
2021/06/22 02:08:59;;;;;;;1.87;0.50;;;20.90;74.20;;;;;;2347052;53;21575;-66
2021/06/22 02:11:25;;;;;;;1.95;0.40;;;20.90;74.20;;;;;;2345830;53;20978;-66
2021/06/22 02:13:51;;;;;;;0.90;0.43;;;20.90;74.20;;;;;;2348573;53;20935;-66
2021/06/22 02:16:18;;;;;;;0.88;0.40;;;20.90;74.20;;;;;;2329978;53;21490;-66
2021/06/22 02:18:44;;;;;;;0.90;0.40;;;20.90;74.10;;;;;;2349276;53;21443;-68
2021/06/22 02:21:11;;;;;;;0.47;0.30;;;20.90;74.10;;;;;;2348813;53;21427;-67
2021/06/22 02:23:37;;;;;;;1.15;0.47;;;20.90;74.00;;;;;;2346554;53;20986;-66
2021/06/22 02:26:04;;;;;;;2.03;0.55;;;20.90;73.90;;;;;;2346973;53;20953;-66
2021/06/22 02:28:30;;;;;;;1.05;0.40;;;20.90;73.80;;;;;;2346168;53;21029;-67
2021/06/22 02:30:57;;;;;;;0.43;0.30;;;20.90;73.90;;;;;;2588551;52;20951;-66
2021/06/22 02:33:24;;;;;;;0.68;0.30;;;20.90;73.90;;;;;;2506559;52;20963;-68
2021/06/22 02:35:50;;;;;;;2.12;0.55;;;20.90;74.00;;;;;;2351483;53;21440;-66
2021/06/22 02:38:16;;;;;;;1.05;0.40;;;20.90;73.90;;;;;;2346203;53;20954;-66
2021/06/22 02:40:42;;;;;;;1.50;0.50;;;20.90;73.90;;;;;;2346594;53;21002;-66
2021/06/22 02:43:08;;;;;;;0.90;0.40;;;20.90;73.90;;;;;;2348678;53;21417;-66
2021/06/22 02:45:35;;;;;;;1.42;0.50;;;20.90;73.90;;;;;;2350139;53;20944;-66
2021/06/22 02:48:02;;;;;;;0.52;0.20;;;20.90;73.90;;;;;;2587852;52;20963;-67
2021/06/22 02:50:28;;;;;;;0.93;0.30;;;20.90;73.90;;;;;;2587961;52;20902;-69
2021/06/22 02:52:54;;;;;;;1.33;0.50;;;20.90;73.80;;;;;;2466852;52;20973;-67
2021/06/22 02:55:21;;;;;;;1.00;0.30;;;20.80;73.70;;;;;;2348628;53;20990;-67
2021/06/22 02:57:52;;;;;;;1.95;0.60;;;20.80;73.60;;;;;;2349195;53;21633;-66
2021/06/22 03:00:22;;;;;;;1.25;0.45;;;20.80;73.50;;;;;;2411965;52;20934;-66
2021/06/22 03:02:50;;;;;;;0.77;0.40;;;20.80;73.60;;;;;;2346408;53;20962;-67
2021/06/22 03:05:16;;;;;;;0.95;0.40;;;20.80;73.60;;;;;;2347826;53;21018;-66
2021/06/22 03:07:42;;;;;;;1.70;0.32;;;20.80;73.60;;;;;;2345655;53;21709;-67
2021/06/22 03:10:13;;;;;;;1.25;0.45;;;20.80;73.60;;;;;;2355478;53;21380;-68
2021/06/22 03:12:39;;;;;;;1.65;0.47;;;20.80;73.60;;;;;;2348861;53;21443;-68
2021/06/22 03:15:10;;;;;;;1.08;0.50;;;20.70;73.70;;;;;;2351316;53;21477;-66
2021/06/22 03:17:36;;;;;;;1.17;0.50;;;20.70;73.50;;;;;;2349165;53;20986;-66
2021/06/22 03:20:06;;;;;;;1.62;0.57;;;20.70;73.80;;;;;;2495500;52;21053;-66
2021/06/22 03:22:34;;;;;;;1.65;0.60;;;20.70;73.70;;;;;;2359488;53;21138;-66
2021/06/22 03:25:01;;;;;;;1.75;0.50;;;20.70;73.80;;;;;;2530908;52;21042;-66
2021/06/22 03:27:27;;;;;;;1.40;0.60;;;20.70;73.70;;;;;;2346185;53;20934;-66
2021/06/22 03:29:54;;;;;;;1.42;0.50;;;20.70;73.70;;;;;;2349869;53;21029;-66
2021/06/22 03:32:26;;;;;;;1.95;0.50;;;20.70;73.70;;;;;;2351250;53;20990;-66
2021/06/22 03:34:53;;;;;;;1.37;0.62;;;20.70;73.50;;;;;;2354045;53;20950;-67
2021/06/22 03:37:19;;;;;;;1.37;0.60;;;20.60;73.80;;;;;;2345278;53;21005;-66
2021/06/22 03:39:47;;;;;;;1.30;0.60;;;20.60;74.00;;;;;;2349284;53;20949;-68
2021/06/22 03:42:13;;;;;;;1.95;0.65;;;20.60;74.10;;;;;;2352519;53;20942;-70
2021/06/22 03:44:40;;;;;;;1.70;0.55;;;20.60;74.20;;;;;;2349248;53;21053;-68
2021/06/22 03:47:06;;;;;;;1.55;0.70;;;20.60;74.30;;;;;;2349259;53;21432;-67
2021/06/22 03:49:32;;;;;;;1.52;0.57;;;20.60;74.30;;;;;;2345231;53;20929;-67
2021/06/22 03:51:58;;;;;;;1.15;0.52;;;20.60;74.40;;;;;;2350757;53;21017;-66
2021/06/22 03:54:25;;;;;;;1.55;0.70;;;20.60;74.40;;;;;;2346028;53;21009;-66
2021/06/22 03:56:51;;;;;;;1.55;0.50;;;20.60;74.30;;;;;;2347852;53;20922;-66
2021/06/22 03:59:17;;;;;;;1.75;0.52;;;20.60;74.50;;;;;;2349421;53;20961;-66
2021/06/22 04:01:44;;;;;;;1.45;0.68;;;20.60;74.50;;;;;;2346808;53;21027;-66
2021/06/22 04:04:10;;;;;;;1.65;0.60;;;20.60;74.60;;;;;;2348288;53;20963;-67
2021/06/22 04:06:36;;;;;;;1.02;0.50;;;20.70;74.70;;;;;;2586890;52;20911;-66
2021/06/22 04:09:03;;;;;;;1.70;0.60;;;20.60;74.60;;;;;;2345892;53;21368;-68
2021/06/22 04:11:29;;;;;;;1.80;0.57;;;20.60;74.70;;;;;;2348677;53;21565;-66
2021/06/22 04:13:55;;;;;;;2.15;0.70;;;20.70;74.90;;;;;;2355337;53;20955;-66
2021/06/22 04:16:21;;;;;;;0.95;0.50;;;20.70;74.90;;;;;;2353702;53;21417;-67
2021/06/22 04:18:48;;;;;;;1.20;0.50;;;20.70;74.80;;;;;;2349673;53;20938;-66
2021/06/22 04:21:14;;;;;;;1.40;0.60;;;20.70;74.90;;;;;;2348160;53;21497;-67
2021/06/22 04:23:40;;;;;;;1.10;0.50;;;20.70;74.90;;;;;;2345840;53;20942;-66
2021/06/22 04:26:08;;;;;;;1.05;0.50;;;20.70;75.00;;;;;;2407084;52;21045;-66
2021/06/22 04:28:34;;;;;;;1.65;0.80;;;20.70;75.00;;;;;;2422541;52;20938;-68
2021/06/22 04:31:00;;;;;;;2.25;0.80;;;20.80;75.10;;;;;;2345938;53;20966;-66
2021/06/22 04:33:26;;;;;;;1.75;0.50;;;20.70;75.00;;;;;;2349193;53;21022;-67
2021/06/22 04:35:53;;;;;;;0.82;0.40;;;20.80;75.10;;;;;;2349015;53;20981;-66
2021/06/22 04:38:19;;;;;;;2.97;0.70;;;20.80;75.10;;;;;;2542971;52;21013;-67
2021/06/22 04:40:46;;;;;;;1.77;0.60;;;20.80;75.00;;;;;;2382593;53;20934;-66
2021/06/22 04:43:12;;;;;;;1.83;0.60;;;20.80;74.80;;;;;;2351932;53;21017;-69
2021/06/22 04:45:40;;;;;;;1.83;0.75;;;20.80;74.80;;;;;;2348458;53;21562;-66
2021/06/22 04:48:07;;;;;;;2.67;0.80;;;20.80;74.70;;;;;;2466261;52;21214;-70
2021/06/22 04:50:33;;;;;;;1.90;0.80;;;20.90;74.90;;;;;;2349834;53;21010;-69
2021/06/22 04:52:59;;;;;;;1.95;0.80;;;20.90;74.90;;;;;;2346636;53;21327;-69
2021/06/22 04:55:26;;;;;;;1.70;0.80;;;20.90;74.90;;;;;;2346091;53;20943;-67
2021/06/22 04:57:55;;;;;;;2.10;0.80;;;20.90;75.00;;;;;;2348187;53;20923;-67
2021/06/22 05:00:21;;;;;;;1.65;0.60;;;20.90;75.00;;;;;;2346890;53;20970;-66
2021/06/22 05:02:48;;;;;;;2.03;0.62;;;20.90;75.10;;;;;;2348254;53;20954;-67
2021/06/22 05:05:14;;;;;;;2.25;0.90;;;20.90;75.20;;;;;;2585961;52;20946;-67
2021/06/22 05:07:40;;;;;;;1.00;0.50;;;20.90;75.20;;;;;;2346826;53;21513;-66
2021/06/22 05:10:07;;;;;;;1.15;0.52;;;21.00;75.20;;;;;;2352961;53;20978;-68
2021/06/22 05:12:34;;;;;;;1.60;0.60;;;21.00;75.20;;;;;;2588422;52;21477;-66
2021/06/22 05:15:00;;;;;;;0.95;0.40;;;21.00;75.20;;;;;;2352195;53;21018;-68
2021/06/22 05:17:26;;;;;;;1.05;0.55;;;21.00;75.20;;;;;;2345633;53;21863;-67
2021/06/22 05:19:52;;;;;;;0.82;0.50;;;21.10;75.30;;;;;;2348703;53;20914;-66
2021/06/22 05:22:18;;;;;;;1.80;0.70;;;21.10;75.30;;;;;;2350737;53;20930;-68
2021/06/22 05:24:45;;;;;;;2.62;0.60;;;21.10;75.30;;;;;;2488433;52;21458;-69
2021/06/22 05:27:14;;;;;;;1.90;0.93;;;21.10;75.30;;;;;;2349137;53;21423;-66
2021/06/22 05:29:41;;;;;;;1.55;0.70;;;21.10;75.30;;;;;;2350696;53;21022;-67
2021/06/22 05:32:07;;;;;;;2.42;0.70;;;21.10;75.20;;;;;;2349225;53;21443;-69
2021/06/22 05:34:33;;;;;;;1.52;0.60;;;21.10;75.20;;;;;;2319331;53;1859708;-66
2021/06/22 05:36:59;;;;;;;1.73;0.80;;;21.20;75.30;;;;;;2347918;53;20938;-66
2021/06/22 05:39:26;;;;;;;1.37;0.68;;;21.10;75.20;;;;;;2434887;52;21368;-67
2021/06/22 05:41:52;;;;;;;2.45;0.90;;;21.20;75.30;;;;;;2392775;52;21300;-66
2021/06/22 05:44:19;;;;;;;2.12;1.02;;;21.20;75.30;;;;;;2338244;53;20969;-67
2021/06/22 05:46:45;;;;;;;1.70;0.80;;;21.20;75.40;;;;;;2344410;53;21544;-69
2021/06/22 05:49:11;;;;;;;2.12;0.73;;;21.20;75.40;;;;;;2345489;54;21059;-66
2021/06/22 05:51:38;;;;;;;1.37;0.57;;;21.30;75.50;;;;;;2346259;53;21462;-68
2021/06/22 05:54:04;;;;;;;2.90;0.90;;;21.30;75.50;;;;;;2349698;53;21387;-66
2021/06/22 05:56:31;;;;;;;3.28;0.80;;;21.30;75.50;;;;;;2347129;53;20972;-67
2021/06/22 05:58:58;;;;;;;2.78;0.90;;;21.30;75.60;;;;;;2345410;53;21492;-67
2021/06/22 06:01:24;;;;;;;3.15;0.90;;;21.30;75.60;;;;;;2351129;53;20966;-67
2021/06/22 06:03:51;;;;;;;1.85;0.80;;;21.40;75.70;;;;;;2586748;52;21035;-69
2021/06/22 06:06:17;;;;;;;1.98;0.80;;;21.40;75.70;;;;;;2348867;53;20976;-66
2021/06/22 06:08:44;;;;;;;1.33;0.50;;;21.40;75.70;;;;;;2369805;53;20978;-67
2021/06/22 06:11:10;;;;;;;2.22;0.77;;;21.50;75.90;;;;;;2348718;53;21585;-66
2021/06/22 06:13:37;;;;;;;1.33;0.60;;;21.50;75.90;;;;;;2348267;53;20957;-66
2021/06/22 06:16:04;;;;;;;2.60;1.10;;;21.50;75.90;;;;;;2350714;53;21057;-67
2021/06/22 06:18:32;;;;;;;1.85;0.90;;;21.50;75.80;;;;;;2544013;52;20999;-70
2021/06/22 06:21:00;;;;;;;2.90;0.95;;;21.50;75.50;;;;;;2348822;53;21856;-69
2021/06/22 06:23:31;;;;;;;2.03;0.70;;;21.50;75.50;;;;;;2330304;53;20935;-69
2021/06/22 06:25:58;;;;;;;2.53;1.00;;;21.60;75.70;;;;;;2348631;53;21047;-67
2021/06/22 06:28:33;;;;;;;2.53;1.05;;;21.60;75.70;;;;;;2348770;53;21038;-67
2021/06/22 06:30:59;;;;;;;2.40;0.73;;;21.60;75.70;;;;;;2537464;52;20969;-68
2021/06/22 06:33:26;;;;;;;1.70;0.62;;;21.60;75.70;;;;;;2345985;53;20963;-66
2021/06/22 06:35:53;;;;;;;2.10;0.90;;;21.70;75.90;;;;;;2348675;53;20950;-68
2021/06/22 06:38:20;;;;;;;5.37;1.10;;;21.70;75.80;;;;;;2346655;53;21340;-68
2021/06/22 06:40:47;;;;;;;2.30;1.10;;;21.70;75.70;;;;;;2345952;53;20974;-67
2021/06/22 06:43:13;;;;;;;3.03;1.37;;;21.70;75.70;;;;;;2346593;53;21320;-71
2021/06/22 06:45:39;;;;;;;2.42;1.08;;;21.80;75.80;;;;;;2346679;53;21029;-67
2021/06/22 06:48:06;;;;;;;1.77;0.82;;;21.80;75.70;;;;;;2346679;53;20972;-68
2021/06/22 06:50:33;;;;;;;2.33;0.93;;;21.80;75.60;;;;;;2349912;53;20958;-67
2021/06/22 06:53:00;;;;;;;2.40;0.75;;;21.80;75.60;;;;;;2348696;53;21285;-68
2021/06/22 06:55:29;;;;;;;2.92;1.15;;;21.80;75.50;;;;;;2346469;53;20962;-68
2021/06/22 06:57:56;;;;;;;3.08;0.90;;;21.90;75.60;;;;;;2347447;53;21458;-66
2021/06/22 07:00:23;;;;;;;2.17;0.80;;;21.90;75.50;;;;;;2346122;53;21739;-66
2021/06/22 07:02:49;;;;;;;1.92;0.85;;;21.90;75.50;;;;;;2348661;53;21054;-70
2021/06/22 07:05:16;;;;;;;2.67;1.00;;;21.90;75.50;;;;;;2349512;53;20930;-68
2021/06/22 07:07:42;;;;;;;1.58;0.80;;;21.90;75.60;;;;;;2345975;53;20967;-66
2021/06/22 07:10:09;;;;;;;1.75;0.75;;;21.90;75.50;;;;;;2347046;53;20966;-66
2021/06/22 07:12:35;;;;;;;1.83;0.82;;;22.00;75.60;;;;;;2345982;53;20954;-67
2021/06/22 07:15:02;;;;;;;2.80;0.75;;;22.00;75.70;;;;;;2346193;53;21069;-67
2021/06/22 07:17:28;;;;;;;1.52;0.70;;;22.00;75.70;;;;;;2346396;53;20969;-69
2021/06/22 07:19:54;;;;;;;2.03;0.70;;;22.10;75.80;;;;;;2351249;53;20942;-66
2021/06/22 07:22:21;;;;;;;3.92;0.80;;;22.00;75.60;;;;;;2345335;53;20955;-66
2021/06/22 07:24:49;;;;;;;2.65;0.70;;;22.10;75.70;;;;;;2346889;53;20938;-66
2021/06/22 07:27:16;;;;;;;2.35;0.88;;;22.10;75.70;;;;;;2347036;53;20981;-66
2021/06/22 07:29:43;;;;;;;3.58;0.90;;;22.10;75.60;;;;;;2348844;53;21542;-67
2021/06/22 07:32:09;;;;;;;3.30;0.88;;;22.10;75.50;;;;;;2345353;53;21009;-69
2021/06/22 07:34:36;;;;;;;2.75;0.85;;;22.10;75.50;;;;;;2350070;53;20962;-68
2021/06/22 07:37:03;;;;;;;2.20;0.90;;;22.10;75.60;;;;;;2346200;53;21578;-69
2021/06/22 07:39:29;;;;;;;2.03;0.80;;;22.20;75.70;;;;;;2344926;53;20974;-68
2021/06/22 07:41:56;;;;;;;2.62;1.02;;;22.20;75.60;;;;;;2347502;53;20923;-69
2021/06/22 07:44:22;;;;;;;3.47;1.10;;;22.20;75.50;;;;;;2349537;53;20976;-67
2021/06/22 07:46:48;;;;;;;2.75;1.23;;;22.20;75.20;;;;;;2368695;52;20954;-67
2021/06/22 07:49:15;;;;;;;2.30;0.93;;;22.20;75.20;;;;;;2345613;53;21256;-71
2021/06/22 07:51:41;;;;;;;2.92;1.00;;;22.20;75.30;;;;;;2327570;54;20940;-67
2021/06/22 07:54:08;;;;;;;3.17;1.00;;;22.20;75.40;;;;;;2348263;53;21346;-67
2021/06/22 07:56:34;;;;;;;2.35;0.88;;;22.20;75.40;;;;;;2442625;52;21471;-69
2021/06/22 07:59:00;;;;;;;2.12;0.93;;;22.20;75.40;;;;;;2351599;53;20999;-68
2021/06/22 08:01:26;;;;;;;2.47;0.82;;;22.20;75.40;;;;;;2347676;53;20935;-70
2021/06/22 08:03:53;;;;;;;4.18;0.80;;;22.20;75.40;;;;;;2345828;53;20996;-70
2021/06/22 08:06:19;;;;;;;3.37;1.27;;;22.20;75.50;;;;;;2351161;53;21025;-68
2021/06/22 08:08:45;;;;;;;4.50;0.85;;;22.20;75.50;;;;;;2370008;53;21081;-68
2021/06/22 08:11:13;;;;;;;1.87;0.82;;;22.30;75.60;;;;;;2347415;53;21351;-69
2021/06/22 08:13:40;;;;;;;3.10;1.08;;;22.30;75.50;;;;;;2588819;52;21434;-68
2021/06/22 08:16:06;;;;;;;2.85;1.00;;;22.30;75.40;;;;;;2587674;52;21398;-66
2021/06/22 08:18:33;;;;;;;3.75;0.95;;;22.30;75.40;;;;;;2346778;53;21009;-67
2021/06/22 08:21:00;;;;;;;2.20;0.90;;;22.30;75.40;;;;;;2347801;53;21451;-69
2021/06/22 08:23:26;;;;;;;2.40;1.12;;;22.30;75.40;;;;;;2349477;53;20946;-68
2021/06/22 08:25:53;;;;;;;2.45;0.90;;;22.40;75.60;;;;;;2345701;53;20918;-70
2021/06/22 08:28:19;;;;;;;2.45;1.00;;;22.40;75.50;;;;;;2368192;52;20981;-71
2021/06/22 08:30:46;;;;;;;2.35;1.00;;;22.40;75.40;;;;;;2348978;53;20970;-71
2021/06/22 08:33:12;;;;;;;2.10;0.80;;;22.40;75.40;;;;;;2346070;53;20946;-70
2021/06/22 08:35:39;;;;;;;1.55;0.82;;;22.40;75.40;;;;;;2348499;53;20966;-69
2021/06/22 08:38:10;;;;;;;3.75;0.75;;;22.50;75.40;;;;;;2349158;53;21023;-70
2021/06/22 08:40:40;;;;;;;1.52;0.70;;;22.50;75.30;;;;;;2347022;53;21860;-67
2021/06/22 08:43:10;;;;;;;4.72;0.82;;;22.50;75.10;;;;;;2350424;53;20993;-68
2021/06/22 08:45:37;;;;;;;2.95;1.10;;;22.50;75.00;;;;;;2355904;53;21022;-68
2021/06/22 08:48:04;;;;;;;2.35;1.00;;;22.50;74.80;;;;;;2487729;52;20906;-68
2021/06/22 08:50:31;;;;;;;2.53;1.10;;;22.50;74.70;;;;;;2348082;53;20941;-72
2021/06/22 08:52:57;;;;;;;2.22;0.85;;;22.50;74.60;;;;;;2345707;53;21427;-68
2021/06/22 08:55:26;;;;;;;3.05;1.10;;;22.50;74.60;;;;;;2347172;53;21017;-68
2021/06/22 08:58:08;;;;;;;3.05;1.10;;;22.50;74.70;;;;;;2347432;53;20962;-70
2021/06/22 09:00:37;;;;;;;2.80;1.00;;;22.50;74.30;;;;;;2348555;53;20949;-68
2021/06/22 09:03:11;;;;;;;2.30;1.10;;;22.50;74.60;;;;;;2352213;53;21365;-68
2021/06/22 09:05:44;;;;;;;1.83;0.90;;;22.50;74.50;;;;;;2345413;53;20970;-71
2021/06/22 09:08:36;;;;;;;1.80;0.95;;;22.50;74.50;;;;;;2348584;53;20918;-70
2021/06/22 09:11:10;;;;;;;2.35;1.15;;;22.40;74.50;;;;;;2329991;53;20958;-68
2021/06/22 09:13:37;;;;;;;2.42;1.20;;;22.40;74.50;;;;;;2347966;53;20929;-68
2021/06/22 09:16:05;;;;;;;2.95;1.20;;;22.40;74.80;;;;;;2590343;52;20959;-69
2021/06/22 09:18:36;;;;;;;1.90;1.00;;;22.40;75.00;;;;;;2346081;53;20995;-67
2021/06/22 09:21:18;;;;;;;1.73;0.93;;;22.40;75.20;;;;;;2560538;53;21094;-69
2021/06/22 09:23:45;;;;;;;3.95;1.15;;;22.40;75.40;;;;;;2350333;53;20962;-69
2021/06/22 09:26:13;;;;;;;3.30;1.27;;;22.40;75.50;;;;;;2349778;53;21009;-68
2021/06/22 09:28:39;;;;;;;1.90;0.95;;;22.40;75.60;;;;;;2345224;53;20938;-68
2021/06/22 09:31:07;;;;;;;2.90;1.35;;;22.40;75.70;;;;;;2348950;53;20958;-68
2021/06/22 09:33:43;;;;;;;2.40;1.15;;;22.40;75.40;;;;;;2346631;53;21062;-71
2021/06/22 09:36:27;;;;;;;3.90;1.20;;;22.50;74.80;;;;;;2347805;53;20987;-71
2021/06/22 09:38:56;;;;;;;3.83;1.40;;;22.40;74.60;;;;;;2329258;53;21061;-72
2021/06/22 09:41:30;;;;;;;2.47;1.12;;;22.40;74.70;;;;;;2587698;52;20946;-68
2021/06/22 09:44:09;;;;;;;2.50;1.20;;;22.40;74.60;;;;;;2348074;53;20938;-68
2021/06/22 09:46:58;;;;;;;1.80;0.85;;;22.40;74.60;;;;;;2348739;53;20947;-68
2021/06/22 09:49:32;;;;;;;1.90;0.98;;;22.40;74.90;;;;;;2352638;53;21291;-66
2021/06/22 09:52:08;;;;;;;2.05;0.90;;;22.40;74.60;;;;;;2348227;53;20930;-69
2021/06/22 09:54:54;;;;;;;4.12;0.90;;;22.30;74.80;;;;;;2350692;53;20995;-68
2021/06/22 09:57:25;;;;;;;3.70;1.00;;;22.30;74.20;;;;;;2346064;53;20926;-67
2021/06/22 10:00:03;;;;;;;1.62;0.70;;;22.30;74.80;;;;;;2326465;54;20953;-71
2021/06/22 10:02:29;;;;;;;2.20;0.98;;;22.30;74.50;;;;;;2327122;53;20998;-68
2021/06/22 10:04:59;;;;;;;1.80;0.80;;;22.30;74.40;;;;;;2353050;53;21026;-68
2021/06/22 10:07:26;;;;;;;1.62;0.73;;;22.30;74.10;;;;;;2345529;53;20914;-68
2021/06/22 10:09:57;;;;;;;1.90;0.68;;;22.30;74.20;;;;;;2589514;52;20934;-68
2021/06/22 10:12:27;;;;;;;1.95;0.73;;;22.30;74.20;;;;;;2587525;52;21447;-71
2021/06/22 10:14:59;;;;;;;2.25;0.90;;;22.20;74.30;;;;;;2347978;53;20971;-67
2021/06/22 10:17:26;;;;;;;2.22;0.93;;;22.20;74.00;;;;;;2346653;53;21733;-71
2021/06/22 10:19:54;;;;;;;1.37;0.65;;;22.20;74.20;;;;;;2348743;53;20930;-68
2021/06/22 10:22:23;;;;;;;2.45;0.90;;;22.10;74.20;;;;;;2347377;53;20958;-70
2021/06/22 10:24:51;;;;;;;1.58;0.68;;;22.10;74.40;;;;;;2586498;52;21574;-71
2021/06/22 10:27:19;;;;;;;1.98;0.90;;;22.10;74.30;;;;;;2348534;53;20974;-70
2021/06/22 10:29:46;;;;;;;1.95;0.98;;;22.10;74.20;;;;;;2348330;53;20981;-68
2021/06/22 10:32:13;;;;;;;1.40;0.60;;;22.00;74.30;;;;;;2346941;53;20993;-69
2021/06/22 10:34:44;;;;;;;1.87;0.90;;;22.00;74.40;;;;;;2485415;52;20942;-69
2021/06/22 10:39:02;;;;;;;2.15;0.88;;;22.00;74.40;;;;;;2327664;54;20950;-71
2021/06/22 10:41:36;;;;;;;1.50;0.60;;;21.90;74.60;;;;;;2349416;53;20939;-68
2021/06/22 10:45:40;;;;;;;1.58;0.77;;;22.00;74.70;;;;;;2348966;53;21754;-68
2021/06/22 10:48:17;;;;;;;1.62;0.68;;;22.00;74.60;;;;;;2352567;53;21034;-71
2021/06/22 10:50:43;;;;;;;2.50;0.90;;;22.00;74.90;;;;;;2345433;53;21093;-69
2021/06/22 10:53:09;;;;;;;1.65;0.68;;;22.00;75.60;;;;;;2378097;52;21748;-69
2021/06/22 10:55:57;;;;;;;1.42;0.62;;;22.00;76.20;;;;;;2348627;53;21442;-70
2021/06/22 10:58:23;;;;;;;1.73;0.82;;;22.10;76.30;;;;;;2346226;53;20970;-71
2021/06/22 11:01:13;;;;;;;1.23;0.65;;;22.10;77.30;;;;;;2395923;52;21383;-68
2021/06/22 11:03:39;;;;;;;1.33;0.70;;;22.30;78.00;;;;;;2345545;53;20994;-71
2021/06/22 11:06:26;;;;;;;1.40;0.62;;;22.40;78.60;;;;;;2350144;53;21845;-69
2021/06/22 11:08:54;;;;;;;1.80;0.60;;;22.50;77.90;;;;;;2348874;53;20955;-73
2021/06/22 11:11:20;;;;;;;1.70;0.70;;;22.60;78.70;;;;;;2330725;53;21402;-69
2021/06/22 11:13:58;;;;;;;1.25;0.62;;;22.80;79.00;;;;;;2348572;53;20977;-68
2021/06/22 11:16:26;;;;;;;3.20;0.60;;;22.90;78.70;;;;;;2474160;52;21061;-70
2021/06/22 11:19:03;;;;;;;2.00;0.80;;;23.00;78.90;;;;;;2374063;53;20966;-69
2021/06/22 11:21:47;;;;;;;1.60;0.60;;;23.20;78.90;;;;;;2348576;53;21481;-70
2021/06/22 11:24:35;;;;;;;1.30;0.60;;;23.30;79.10;;;;;;2349287;53;21041;-69
2021/06/22 11:27:04;;;;;;;1.30;0.60;;;23.50;79.20;;;;;;2352560;53;20998;-68
2021/06/22 11:29:48;;;;;;;1.27;0.60;;;23.60;79.10;;;;;;2367975;52;20942;-69
2021/06/22 11:32:32;;;;;;;1.00;0.52;;;23.80;77.50;;;;;;2348324;53;20994;-69
2021/06/22 11:34:58;;;;;;;3.80;0.60;;;23.90;77.70;;;;;;2329555;54;20926;-69
2021/06/22 11:37:25;;;;;;;1.05;0.52;;;24.00;78.30;;;;;;2346320;53;21018;-68
2021/06/22 11:40:03;;;;;;;1.67;0.70;;;24.10;77.60;;;;;;2345331;53;20985;-69
2021/06/22 11:42:31;;;;;;;2.47;0.68;;;24.30;76.20;;;;;;2345957;53;21499;-71
2021/06/22 11:45:30;;;;;;;3.80;0.82;;;24.30;77.30;;;;;;2331980;53;21112;-71
2021/06/22 11:47:58;;;;;;;0.75;0.45;;;24.50;75.20;;;;;;2349162;53;21510;-68
2021/06/22 11:50:26;;;;;;;1.12;0.50;;;24.60;76.30;;;;;;2347990;53;21041;-67
2021/06/22 11:53:00;;;;;;;1.48;0.60;;;24.60;75.90;;;;;;2353113;53;20934;-71
2021/06/22 11:55:26;;;;;;;1.17;0.60;;;24.80;75.60;;;;;;2352434;53;20942;-68
2021/06/22 11:57:56;;;;;;;1.73;0.70;;;24.80;76.50;;;;;;2345428;53;21006;-68
2021/06/22 12:00:24;;;;;;;1.23;0.50;;;25.00;76.60;;;;;;2347648;53;20922;-67
2021/06/22 12:02:52;;;;;;;0.90;0.50;;;25.10;77.10;;;;;;2369812;53;21077;-72
2021/06/22 12:05:20;;;;;;;1.08;0.45;;;25.20;76.80;;;;;;2346906;53;21009;-75
2021/06/22 12:07:50;;;;;;;1.75;0.70;;;25.30;76.40;;;;;;2345421;53;20958;-70
2021/06/22 12:10:18;;;;;;;1.00;0.47;;;25.40;76.60;;;;;;2349572;53;21085;-68
2021/06/22 12:12:45;;;;;;;1.20;0.57;;;25.40;75.40;;;;;;2588255;52;21581;-68
2021/06/22 12:15:12;;;;;;;1.00;0.50;;;25.50;74.90;;;;;;2348977;53;20914;-68
2021/06/22 12:17:39;;;;;;;1.60;0.60;;;25.60;74.60;;;;;;2347720;53;20971;-70
2021/06/22 12:20:27;;;;;;;1.50;0.50;;;25.70;74.40;;;;;;2346167;53;21509;-67
2021/06/22 12:23:15;;;;;;;0.90;0.40;;;25.70;72.10;;;;;;2347189;53;20986;-67
2021/06/22 12:25:52;;;;;;;1.67;0.70;;;25.80;71.30;;;;;;2348582;53;20930;-67
2021/06/22 12:28:18;;;;;;;1.00;0.50;;;25.80;70.30;;;;;;2348762;53;21002;-71
2021/06/22 12:30:46;;;;;;;1.75;0.70;;;25.70;71.40;;;;;;2554479;52;21009;-67
2021/06/22 12:33:14;;;;;;;1.50;0.60;;;25.70;71.20;;;;;;2416171;52;20935;-67
2021/06/22 12:35:42;;;;;;;1.27;0.60;;;25.70;70.80;;;;;;2587906;52;20931;-68
2021/06/22 12:38:10;;;;;;;1.23;0.50;;;25.70;70.60;;;;;;2345552;53;20914;-67
2021/06/22 12:40:40;;;;;;;1.15;0.60;;;25.70;71.10;;;;;;2346008;53;20959;-67
2021/06/22 12:43:06;;;;;;;1.50;0.50;;;25.70;70.70;;;;;;2345860;53;21001;-70
2021/06/22 12:45:33;;;;;;;1.45;0.80;;;25.70;71.20;;;;;;2345569;53;20930;-68
2021/06/22 12:47:59;;;;;;;2.05;0.70;;;25.70;71.10;;;;;;2349442;53;20949;-67
2021/06/22 12:50:31;;;;;;;2.12;0.60;;;25.70;70.80;;;;;;2345945;53;20962;-68
2021/06/22 12:52:58;;;;;;;2.17;0.70;;;25.70;70.30;;;;;;2347503;53;20947;-69
2021/06/22 12:55:47;;;;;;;1.33;0.50;;;25.70;72.10;;;;;;2589169;52;21711;-70
2021/06/22 12:58:14;;;;;;;1.12;0.50;;;25.80;71.80;;;;;;2344844;53;20950;-70